Time;durP1;ratioP1;P1;durP2;ratioP2;P2;SDS_P1;SDS_P2;PMS_P1;PMS_P2;Temp;Humidity;BMP_temperature;BMP_pressure;BME280_temperature;BME280_humidity;BME280_pressure;Samples;Min_cycle;Max_cycle;Signal;HPM_P1;HPM_P2
2022/06/18 00:04:56;;;;;;;34.05;18.55;;;12.80;99.90;;;;;;10476778;28;20036;-83
2022/06/18 00:10:04;;;;;;;31.50;18.77;;;12.80;99.90;;;;;;10469231;28;20127;-85
2022/06/18 00:15:24;;;;;;;26.77;17.45;;;12.70;99.90;;;;;;10467414;28;20024;-84
2022/06/18 00:20:27;;;;;;;26.80;17.75;;;12.60;99.90;;;;;;10466914;28;20036;-85
2022/06/18 00:25:35;;;;;;;22.88;15.02;;;12.60;99.90;;;;;;10465587;28;20075;-84
2022/06/18 00:30:36;;;;;;;26.90;16.90;;;12.60;99.90;;;;;;10449356;28;20391;-83
2022/06/18 00:35:36;;;;;;;23.13;16.77;;;12.60;99.90;;;;;;10471563;28;20032;-82
2022/06/18 00:40:41;;;;;;;25.00;15.90;;;12.50;99.90;;;;;;10464926;28;20777;-87
2022/06/18 00:45:41;;;;;;;23.90;14.75;;;12.50;99.90;;;;;;10466507;28;20135;-82
2022/06/18 00:51:09;;;;;;;23.50;14.90;;;12.60;99.90;;;;;;10461912;28;20025;-84
2022/06/18 00:56:21;;;;;;;25.73;15.93;;;12.50;99.90;;;;;;10457041;28;20536;-84
2022/06/18 01:01:28;;;;;;;23.70;14.80;;;12.50;99.90;;;;;;10477999;28;20028;-84
2022/06/18 01:06:32;;;;;;;25.90;15.35;;;12.40;99.90;;;;;;10463749;28;20024;-86
2022/06/18 01:11:40;;;;;;;23.08;13.63;;;12.50;99.90;;;;;;10466600;28;20048;-84
2022/06/18 01:16:41;;;;;;;23.40;14.75;;;12.40;99.90;;;;;;10468652;28;20032;-84
2022/06/18 01:21:57;;;;;;;25.73;15.30;;;12.40;99.90;;;;;;10460952;28;20033;-83
2022/06/18 01:26:57;;;;;;;24.65;15.15;;;12.40;99.90;;;;;;10470789;28;20028;-84
2022/06/18 01:31:59;;;;;;;29.90;15.10;;;12.30;99.90;;;;;;10469931;28;20395;-84
2022/06/18 01:37:02;;;;;;;22.80;14.73;;;12.30;99.90;;;;;;10479880;28;20031;-84
2022/06/18 01:42:08;;;;;;;29.85;18.33;;;12.20;99.90;;;;;;10452110;28;20029;-84
2022/06/18 01:47:20;;;;;;;37.25;19.23;;;12.20;99.90;;;;;;10463899;28;20036;-85
2022/06/18 01:52:26;;;;;;;29.70;16.73;;;12.10;99.90;;;;;;10451790;28;20020;-85
2022/06/18 01:57:33;;;;;;;24.98;15.55;;;11.90;99.90;;;;;;10481356;28;20029;-89
2022/06/18 02:02:34;;;;;;;24.08;14.60;;;11.90;99.90;;;;;;10484964;28;20033;-88
2022/06/18 02:07:35;;;;;;;23.58;14.68;;;12.00;99.90;;;;;;10459561;28;20030;-83
2022/06/18 02:12:39;;;;;;;22.98;15.48;;;11.90;99.90;;;;;;10478657;28;20345;-85
2022/06/18 02:17:41;;;;;;;25.05;15.25;;;12.00;99.90;;;;;;10473099;28;20020;-83
2022/06/18 02:22:44;;;;;;;29.50;17.90;;;11.90;99.90;;;;;;10468325;28;20040;-83
2022/06/18 02:27:45;;;;;;;25.88;16.83;;;11.90;99.90;;;;;;10484305;28;20040;-85
2022/06/18 02:33:22;;;;;;;27.60;18.42;;;11.70;99.90;;;;;;10477897;28;20016;-83
2022/06/18 02:38:23;;;;;;;28.63;17.52;;;11.70;99.90;;;;;;10482997;28;20109;-84
2022/06/18 02:43:24;;;;;;;30.77;19.42;;;11.60;99.90;;;;;;10473449;28;20449;-81
2022/06/18 02:48:28;;;;;;;24.20;16.65;;;11.60;99.90;;;;;;10465100;28;20021;-83
2022/06/18 02:53:30;;;;;;;25.77;16.10;;;11.60;99.90;;;;;;10488128;28;20521;-83
2022/06/18 02:58:35;;;;;;;30.00;17.67;;;11.60;99.90;;;;;;10482685;28;20029;-85
2022/06/18 03:03:38;;;;;;;26.55;17.83;;;11.60;99.90;;;;;;10481808;28;20388;-83
2022/06/18 03:08:39;;;;;;;30.90;18.67;;;11.60;99.90;;;;;;10469234;28;20037;-83
2022/06/18 03:13:40;;;;;;;28.23;17.45;;;11.60;99.90;;;;;;10476350;28;20028;-82
2022/06/18 03:18:43;;;;;;;25.13;15.95;;;11.60;99.90;;;;;;10485371;28;20025;-82
2022/06/18 03:23:44;;;;;;;25.65;17.20;;;11.70;99.90;;;;;;10475077;28;20068;-83
2022/06/18 03:28:46;;;;;;;31.90;18.98;;;11.70;99.90;;;;;;10467775;28;20629;-83
2022/06/18 03:33:47;;;;;;;27.92;19.77;;;11.70;99.90;;;;;;10486271;28;20914;-83
2022/06/18 03:38:49;;;;;;;27.75;18.30;;;11.70;99.90;;;;;;10476862;28;20559;-84
2022/06/18 03:43:52;;;;;;;30.08;17.80;;;11.70;99.90;;;;;;10468199;28;20035;-82
2022/06/18 03:48:56;;;;;;;26.85;18.70;;;11.70;99.90;;;;;;10468790;28;20020;-84
2022/06/18 03:53:59;;;;;;;38.80;22.27;;;11.70;99.90;;;;;;10470847;28;20032;-83
2022/06/18 03:59:00;;;;;;;30.27;22.30;;;11.70;99.90;;;;;;10476013;28;20420;-84
2022/06/18 04:04:01;;;;;;;35.80;23.48;;;11.80;99.90;;;;;;10480905;28;20739;-83
2022/06/18 04:09:02;;;;;;;30.10;20.73;;;11.80;99.90;;;;;;10484865;28;20055;-82
2022/06/18 04:14:03;;;;;;;33.67;22.02;;;12.00;99.90;;;;;;10473998;28;20032;-85
2022/06/18 04:19:04;;;;;;;33.83;24.90;;;12.20;99.90;;;;;;10474956;28;20027;-83
2022/06/18 04:24:04;;;;;;;32.08;22.50;;;12.40;99.90;;;;;;10471658;28;20483;-84
2022/06/18 04:29:05;;;;;;;34.03;22.48;;;12.50;99.90;;;;;;10470543;28;20028;-83
2022/06/18 04:34:06;;;;;;;38.17;23.30;;;12.70;99.90;;;;;;10474102;28;20033;-84
2022/06/18 04:39:10;;;;;;;31.58;20.85;;;12.90;99.90;;;;;;10469250;28;20653;-83
2022/06/18 04:44:11;;;;;;;27.13;19.80;;;13.00;99.90;;;;;;10467197;28;20064;-85
2022/06/18 04:49:12;;;;;;;27.42;18.77;;;13.20;99.90;;;;;;10480087;28;20023;-83
2022/06/18 04:54:13;;;;;;;30.75;20.95;;;13.40;99.90;;;;;;10468521;28;20663;-84
2022/06/18 04:59:15;;;;;;;28.38;19.50;;;13.60;99.90;;;;;;10459378;28;20105;-83
2022/06/18 05:04:15;;;;;;;27.83;19.27;;;13.80;99.90;;;;;;10480928;28;20595;-83
2022/06/18 05:09:16;;;;;;;24.70;18.15;;;14.00;99.90;;;;;;10484738;28;20102;-83
2022/06/18 05:14:17;;;;;;;26.58;17.50;;;14.30;99.90;;;;;;10481958;28;20039;-84
2022/06/18 05:19:24;;;;;;;24.33;17.10;;;14.50;99.90;;;;;;10485466;28;20643;-84
2022/06/18 05:24:25;;;;;;;22.13;16.02;;;14.80;99.90;;;;;;10450291;28;20037;-84
2022/06/18 05:29:26;;;;;;;24.67;17.50;;;15.00;99.90;;;;;;10469734;28;20035;-85
2022/06/18 05:34:27;;;;;;;33.00;20.73;;;15.30;99.90;;;;;;10468640;28;20162;-84
2022/06/18 05:39:27;;;;;;;30.17;19.55;;;15.60;99.90;;;;;;10457223;28;20024;-84
2022/06/18 05:44:28;;;;;;;25.17;15.80;;;15.90;99.90;;;;;;10481514;28;20781;-84
2022/06/18 05:49:28;;;;;;;17.00;11.48;;;16.20;99.90;;;;;;10479064;28;20032;-87
2022/06/18 05:54:29;;;;;;;14.00;10.10;;;16.60;99.90;;;;;;10483359;28;20036;-84
2022/06/18 05:59:30;;;;;;;15.95;10.13;;;16.90;99.90;;;;;;10459530;28;20120;-85
2022/06/18 06:04:31;;;;;;;11.80;8.95;;;17.10;99.90;;;;;;10471113;28;20442;-85
2022/06/18 06:14:51;;;;;;;12.70;8.35;;;17.70;99.90;;;;;;10480019;28;20028;-85
2022/06/18 06:19:57;;;;;;;14.23;8.40;;;17.90;99.90;;;;;;10465172;28;20379;-87
2022/06/18 06:24:58;;;;;;;14.00;8.40;;;18.10;99.90;;;;;;10479061;28;20036;-85
2022/06/18 06:29:58;;;;;;;10.80;7.40;;;18.30;99.90;;;;;;10462113;28;20025;-84
2022/06/18 06:34:59;;;;;;;11.52;6.65;;;18.60;99.90;;;;;;10483819;28;20084;-84
2022/06/18 06:40:00;;;;;;;12.50;6.88;;;18.70;99.90;;;;;;10475709;28;20020;-85
2022/06/18 06:45:00;;;;;;;11.23;6.65;;;18.90;99.90;;;;;;10474324;28;20037;-83
2022/06/18 06:50:01;;;;;;;7.70;5.90;;;19.20;99.90;;;;;;10470095;28;20065;-83
2022/06/18 07:00:20;;;;;;;8.25;5.40;;;21.30;99.90;;;;;;10482390;28;20118;-85
2022/06/18 07:05:21;;;;;;;7.10;4.35;;;23.00;93.70;;;;;;10459913;28;20603;-83
2022/06/18 07:10:22;;;;;;;6.35;4.20;;;23.80;88.30;;;;;;10475227;28;20049;-85
2022/06/18 07:15:23;;;;;;;6.45;3.50;;;24.40;85.30;;;;;;10465896;28;20460;-87
2022/06/18 07:20:23;;;;;;;6.45;3.00;;;25.00;79.70;;;;;;10453049;28;20021;-84
2022/06/18 07:25:24;;;;;;;3.17;2.72;;;25.30;77.60;;;;;;10452333;28;20070;-84
2022/06/18 07:30:26;;;;;;;4.50;2.67;;;25.40;75.20;;;;;;10473999;28;20055;-84
2022/06/18 07:35:29;;;;;;;5.40;3.10;;;25.50;74.30;;;;;;10462918;28;20017;-86
2022/06/18 07:40:35;;;;;;;5.60;2.50;;;25.60;73.70;;;;;;10479334;28;20098;-86
2022/06/18 07:45:36;;;;;;;4.10;2.30;;;25.70;72.30;;;;;;10474582;28;20432;-90
2022/06/18 07:50:36;;;;;;;5.43;2.50;;;26.10;70.50;;;;;;10453919;28;20104;-86
2022/06/18 07:55:37;;;;;;;3.67;2.50;;;26.20;69.70;;;;;;10466343;28;20332;-85
2022/06/18 08:00:42;;;;;;;4.45;2.78;;;25.50;71.20;;;;;;10483016;28;20081;-84
2022/06/18 08:05:44;;;;;;;5.05;2.22;;;25.10;71.80;;;;;;10474968;28;20029;-84
2022/06/18 08:10:51;;;;;;;3.40;2.42;;;24.90;70.00;;;;;;10484901;28;20079;-85
2022/06/18 08:15:51;;;;;;;4.68;2.70;;;24.90;71.90;;;;;;10460699;28;20052;-86
2022/06/18 08:20:52;;;;;;;4.47;2.50;;;24.80;74.80;;;;;;10462284;28;20036;-87
2022/06/18 08:25:53;;;;;;;4.78;2.30;;;24.80;72.70;;;;;;10478247;28;20028;-84
2022/06/18 08:30:53;;;;;;;3.38;2.05;;;25.00;71.20;;;;;;10472809;28;20456;-84
2022/06/18 08:35:57;;;;;;;3.15;2.28;;;25.10;71.10;;;;;;10478336;28;20173;-84
2022/06/18 08:41:28;;;;;;;3.67;2.15;;;25.00;69.30;;;;;;10479887;28;20054;-85
2022/06/18 08:46:47;;;;;;;3.70;2.08;;;25.40;70.50;;;;;;10455953;28;20040;-89
2022/06/18 08:52:08;;;;;;;5.18;2.30;;;25.80;69.60;;;;;;10472840;28;20423;-86
2022/06/18 08:57:22;;;;;;;3.38;2.28;;;26.10;69.50;;;;;;10451807;28;20029;-85
2022/06/18 09:02:26;;;;;;;4.00;2.80;;;26.40;69.50;;;;;;10462885;28;20045;-85
2022/06/18 09:07:54;;;;;;;4.10;2.03;;;26.50;69.00;;;;;;10467413;28;20120;-84
2022/06/18 09:13:04;;;;;;;2.33;1.90;;;26.70;68.60;;;;;;10510121;28;20055;-84
2022/06/18 09:18:30;;;;;;;3.92;2.28;;;26.80;66.80;;;;;;10524094;28;20066;-84
2022/06/18 09:23:50;;;;;;;2.65;2.05;;;26.80;65.00;;;;;;10513672;28;20062;-85
2022/06/18 09:29:01;;;;;;;3.75;1.80;;;26.60;66.40;;;;;;10532209;28;20024;-86
2022/06/18 09:34:16;;;;;;;2.20;1.80;;;26.60;68.00;;;;;;10530558;28;20060;-85
2022/06/18 09:39:22;;;;;;;5.32;1.90;;;26.80;66.60;;;;;;10519535;28;20464;-87
2022/06/18 09:44:42;;;;;;;3.50;1.70;;;26.70;67.50;;;;;;10526844;28;20465;-85
2022/06/18 09:49:45;;;;;;;3.50;1.80;;;26.20;66.60;;;;;;10516646;28;20107;-85
2022/06/18 09:54:55;;;;;;;1.60;1.50;;;25.90;67.20;;;;;;10524869;28;20035;-83
2022/06/18 10:00:13;;;;;;;2.65;1.60;;;26.00;67.50;;;;;;10520997;28;20487;-84
2022/06/18 10:10:52;;;;;;;2.08;1.60;;;26.60;66.70;;;;;;10489805;28;20123;-83
2022/06/18 10:16:00;;;;;;;2.53;1.70;;;26.90;67.90;;;;;;10468881;28;20027;-83
2022/06/18 10:21:12;;;;;;;3.00;1.90;;;27.20;66.10;;;;;;10477097;28;20074;-83
2022/06/18 10:26:28;;;;;;;1.98;1.70;;;27.30;64.90;;;;;;10477375;28;20082;-84
2022/06/18 10:31:56;;;;;;;2.70;1.83;;;27.60;65.70;;;;;;10469577;28;20020;-82
2022/06/18 10:37:27;;;;;;;2.83;1.80;;;27.70;64.00;;;;;;10476691;28;20028;-84
2022/06/18 10:42:39;;;;;;;2.70;1.60;;;27.80;64.10;;;;;;10484379;28;20031;-83
2022/06/18 10:47:44;;;;;;;2.67;1.77;;;27.80;65.40;;;;;;10467020;28;20063;-84
2022/06/18 10:53:00;;;;;;;3.15;1.70;;;27.80;62.10;;;;;;10467202;28;20023;-84
2022/06/18 10:58:12;;;;;;;2.15;1.75;;;27.60;63.10;;;;;;10457406;28;20021;-83
2022/06/18 11:03:22;;;;;;;3.03;1.83;;;27.70;63.70;;;;;;10464883;28;20423;-82
2022/06/18 11:08:34;;;;;;;3.25;1.88;;;28.00;66.00;;;;;;10462294;28;20095;-83
2022/06/18 11:13:44;;;;;;;2.22;1.67;;;28.20;64.50;;;;;;10475293;28;20701;-83
2022/06/18 11:18:51;;;;;;;3.72;1.60;;;28.40;65.10;;;;;;10471342;28;20062;-83
2022/06/18 11:23:57;;;;;;;3.00;1.60;;;28.30;64.90;;;;;;10468818;28;20032;-82
2022/06/18 11:29:04;;;;;;;4.13;1.70;;;28.40;61.90;;;;;;10475267;28;20021;-84
2022/06/18 11:34:24;;;;;;;2.13;1.50;;;28.30;62.30;;;;;;10469055;28;20012;-86
2022/06/18 11:39:34;;;;;;;2.90;2.30;;;28.30;64.70;;;;;;10469335;28;20056;-84
2022/06/18 11:44:43;;;;;;;2.03;1.67;;;28.40;63.90;;;;;;10466980;28;20574;-86
2022/06/18 11:50:07;;;;;;;3.00;1.60;;;28.60;64.00;;;;;;10472734;28;20496;-83
2022/06/18 11:55:08;;;;;;;2.92;1.65;;;28.80;63.50;;;;;;10463895;28;20066;-84
2022/06/18 12:00:44;;;;;;;4.47;2.00;;;28.90;61.70;;;;;;10477701;28;20028;-86
2022/06/18 12:05:51;;;;;;;4.30;1.92;;;28.90;63.50;;;;;;10464290;28;20395;-83
2022/06/18 12:11:36;;;;;;;5.43;2.40;;;28.90;62.90;;;;;;10465184;28;20071;-82
2022/06/18 12:16:49;;;;;;;;;;;28.90;62.20;;;;;;10478332;28;20037;-83
2022/06/18 12:22:01;;;;;;;1.90;1.80;;;28.90;63.80;;;;;;10469843;28;20010;-84
2022/06/18 12:27:11;;;;;;;2.22;1.65;;;28.90;62.40;;;;;;10469251;28;20027;-84
2022/06/18 12:32:31;;;;;;;2.40;1.52;;;29.00;61.50;;;;;;10464300;28;20642;-83
2022/06/18 12:37:43;;;;;;;2.22;1.75;;;29.10;63.30;;;;;;10443559;28;20039;-86
2022/06/18 12:42:55;;;;;;;2.50;1.70;;;29.00;59.90;;;;;;10473607;28;20032;-83
2022/06/18 12:48:07;;;;;;;2.63;2.03;;;28.90;62.90;;;;;;10457628;28;20044;-86
2022/06/18 12:53:14;;;;;;;2.08;1.60;;;28.90;62.80;;;;;;10475023;28;20021;-87
2022/06/18 12:58:38;;;;;;;1.83;1.73;;;29.00;61.50;;;;;;10456919;28;20475;-85
2022/06/18 13:04:22;;;;;;;3.55;1.60;;;29.10;61.10;;;;;;10473022;28;20275;-85
2022/06/18 13:09:42;;;;;;;1.50;1.40;;;29.00;61.20;;;;;;10460448;28;20128;-88
2022/06/18 13:15:06;;;;;;;1.88;1.60;;;29.10;61.00;;;;;;10460839;28;20565;-86
2022/06/18 13:20:34;;;;;;;5.20;1.70;;;29.20;60.50;;;;;;10454398;28;20152;-86
2022/06/18 13:31:19;;;;;;;2.88;1.67;;;28.90;62.80;;;;;;10467910;28;20417;-86
2022/06/18 13:36:42;;;;;;;2.67;1.50;;;29.00;60.90;;;;;;10461547;28;20021;-85
2022/06/18 13:41:59;;;;;;;2.30;1.50;;;28.80;61.90;;;;;;10438534;28;20021;-85
2022/06/18 13:47:14;;;;;;;4.78;1.77;;;28.80;60.50;;;;;;10455575;28;20080;-85
2022/06/18 13:52:15;;;;;;;1.90;1.60;;;28.60;60.20;;;;;;10472646;28;20067;-87
2022/06/18 13:57:21;;;;;;;1.73;1.50;;;28.40;62.10;;;;;;10438588;28;20021;-86
2022/06/18 14:02:37;;;;;;;1.50;1.40;;;28.40;63.80;;;;;;10444736;28;20139;-85
2022/06/18 14:07:44;;;;;;;2.55;1.60;;;28.50;63.10;;;;;;10441429;28;20135;-84
2022/06/18 14:12:59;;;;;;;2.70;1.60;;;28.30;63.40;;;;;;10453113;28;20082;-85
2022/06/18 14:18:04;;;;;;;2.95;1.70;;;28.20;63.80;;;;;;10450171;28;20535;-85
2022/06/18 14:23:36;;;;;;;2.47;1.48;;;28.00;64.10;;;;;;10436332;28;20033;-86
2022/06/18 14:28:59;;;;;;;3.97;1.75;;;28.00;63.30;;;;;;10441724;28;20063;-87
2022/06/18 14:34:12;;;;;;;2.67;1.50;;;27.80;65.00;;;;;;10482247;28;20100;-85
2022/06/18 14:39:26;;;;;;;1.77;1.55;;;27.60;64.80;;;;;;10476022;28;20639;-86
2022/06/18 14:44:50;;;;;;;1.70;1.42;;;27.50;64.90;;;;;;10472100;28;20384;-85
2022/06/18 14:50:26;;;;;;;2.95;1.40;;;27.50;66.40;;;;;;10468786;28;20032;-86
2022/06/18 14:55:32;;;;;;;3.03;1.50;;;27.30;65.80;;;;;;10469573;28;20033;-86
2022/06/18 15:01:04;;;;;;;1.65;1.30;;;27.20;66.90;;;;;;10455439;28;20028;-84
2022/06/18 15:06:10;;;;;;;4.78;1.60;;;27.20;66.70;;;;;;10473241;28;20063;-87
2022/06/18 15:11:14;;;;;;;2.22;1.63;;;27.00;67.70;;;;;;10493252;28;20040;-86
2022/06/18 15:26:31;;;;;;;3.28;1.52;;;26.70;67.20;;;;;;10507492;28;20036;-88
2022/06/18 15:31:37;;;;;;;2.37;1.30;;;26.60;67.90;;;;;;10512941;28;20033;-88
2022/06/18 15:36:37;;;;;;;3.50;1.20;;;26.60;68.70;;;;;;10537079;27;20020;-86
2022/06/18 15:41:45;;;;;;;6.97;1.80;;;26.60;69.10;;;;;;10512666;28;20480;-84
2022/06/18 15:47:06;;;;;;;3.17;1.45;;;26.50;67.50;;;;;;10517429;28;20028;-86
2022/06/18 15:52:18;;;;;;;3.85;1.70;;;26.40;69.30;;;;;;10511973;28;20024;-87
2022/06/18 15:57:21;;;;;;;2.88;1.35;;;26.40;68.50;;;;;;10504367;28;20049;-85
2022/06/18 16:02:24;;;;;;;2.45;1.52;;;26.40;68.80;;;;;;10513382;28;20075;-89
2022/06/18 16:07:24;;;;;;;2.38;1.52;;;26.20;69.70;;;;;;10511159;28;20021;-85
2022/06/18 16:12:41;;;;;;;2.92;1.55;;;26.10;70.80;;;;;;10466873;28;20382;-85
2022/06/18 16:17:43;;;;;;;2.90;1.67;;;26.20;70.60;;;;;;10472368;28;20120;-86
2022/06/18 16:22:57;;;;;;;3.22;1.73;;;26.10;70.30;;;;;;10475152;28;20519;-89
2022/06/18 16:28:01;;;;;;;2.83;1.88;;;26.00;71.30;;;;;;10466272;28;20079;-85
2022/06/18 16:33:12;;;;;;;3.58;1.92;;;25.90;72.20;;;;;;10475207;28;20024;-84
2022/06/18 16:38:45;;;;;;;2.67;1.98;;;25.80;71.80;;;;;;10459015;28;20120;-84
2022/06/18 16:43:49;;;;;;;2.92;1.75;;;25.80;70.90;;;;;;10465936;28;20078;-84
2022/06/18 16:49:01;;;;;;;4.40;2.10;;;25.70;71.30;;;;;;10445816;28;20013;-84
2022/06/18 16:54:04;;;;;;;3.38;1.90;;;25.60;72.50;;;;;;10457222;28;20037;-88
2022/06/18 16:59:09;;;;;;;3.58;1.70;;;25.60;72.20;;;;;;10477225;28;20028;-85
2022/06/18 17:04:10;;;;;;;4.43;2.10;;;25.50;72.00;;;;;;10451161;28;20033;-84
2022/06/18 17:09:11;;;;;;;7.45;2.22;;;25.40;73.00;;;;;;10470410;28;20070;-87
2022/06/18 17:14:12;;;;;;;3.03;2.10;;;25.30;74.50;;;;;;10469506;28;20023;-86
2022/06/18 17:19:15;;;;;;;3.28;1.90;;;25.20;74.30;;;;;;10456295;28;20037;-88
2022/06/18 17:35:00;;;;;;;1.98;1.77;;;24.90;74.90;;;;;;10476517;28;20032;-84
2022/06/18 17:40:01;;;;;;;2.58;1.85;;;24.70;76.10;;;;;;10486696;28;20407;-84
2022/06/18 17:45:04;;;;;;;3.42;2.20;;;24.60;75.20;;;;;;10473887;28;20037;-85
2022/06/18 17:50:05;;;;;;;3.30;1.83;;;24.50;75.80;;;;;;10452260;28;20151;-84
2022/06/18 17:55:07;;;;;;;2.95;2.00;;;24.30;77.10;;;;;;10471621;28;20025;-85
2022/06/18 18:00:10;;;;;;;7.75;2.45;;;24.20;77.90;;;;;;10475148;28;20824;-84
2022/06/18 18:05:11;;;;;;;3.55;2.35;;;24.00;77.60;;;;;;10480641;28;20020;-84
2022/06/18 18:10:13;;;;;;;4.18;2.50;;;23.90;78.40;;;;;;10479220;28;20300;-85
2022/06/18 18:15:16;;;;;;;6.97;4.70;;;23.80;79.40;;;;;;10467118;28;20024;-84
2022/06/18 18:20:20;;;;;;;17.45;9.20;;;23.50;81.60;;;;;;10483590;28;20032;-84
2022/06/18 18:25:22;;;;;;;16.77;9.55;;;23.00;83.90;;;;;;10476160;28;20054;-84
2022/06/18 18:30:23;;;;;;;15.90;8.80;;;22.60;84.50;;;;;;10461666;28;20012;-85
2022/06/18 18:35:24;;;;;;;17.10;9.93;;;22.40;86.10;;;;;;10472140;28;20551;-86
2022/06/18 18:40:25;;;;;;;16.67;8.00;;;22.10;86.20;;;;;;10469397;28;20019;-84
2022/06/18 18:45:26;;;;;;;14.10;9.35;;;21.90;86.30;;;;;;10471591;28;20487;-85
2022/06/18 18:50:28;;;;;;;10.15;6.35;;;21.60;87.00;;;;;;10478805;28;20028;-84
2022/06/18 18:55:30;;;;;;;7.07;5.10;;;21.40;88.60;;;;;;10477727;28;20111;-83
2022/06/18 19:00:31;;;;;;;6.05;4.32;;;21.20;89.10;;;;;;10465129;28;20020;-85
2022/06/18 19:05:32;;;;;;;6.35;4.50;;;21.10;88.80;;;;;;10476244;28;20028;-84
2022/06/18 19:10:35;;;;;;;9.15;6.18;;;20.90;89.60;;;;;;10476865;28;20055;-84
2022/06/18 19:15:38;;;;;;;10.63;7.65;;;20.80;90.20;;;;;;10470179;28;20024;-86
2022/06/18 19:20:39;;;;;;;13.77;7.78;;;20.60;90.50;;;;;;10475841;28;20100;-83
2022/06/18 19:25:41;;;;;;;11.43;7.28;;;20.50;91.30;;;;;;10476389;28;20028;-84
2022/06/18 19:30:42;;;;;;;12.10;7.82;;;20.30;91.20;;;;;;10461796;28;20033;-83
2022/06/18 19:35:42;;;;;;;9.77;5.53;;;20.10;91.70;;;;;;10476173;28;20085;-82
2022/06/18 19:40:44;;;;;;;10.18;6.40;;;20.10;91.90;;;;;;10467846;28;20171;-83
2022/06/18 19:45:45;;;;;;;9.05;5.30;;;19.90;92.10;;;;;;10468301;28;20151;-86
2022/06/18 19:50:46;;;;;;;7.75;5.80;;;19.80;92.40;;;;;;10451908;28;20025;-85
2022/06/18 19:55:47;;;;;;;12.05;6.95;;;19.70;92.80;;;;;;10445417;28;20078;-83
2022/06/18 20:00:47;;;;;;;13.90;10.02;;;19.70;93.20;;;;;;10457749;28;20017;-83
2022/06/18 20:05:48;;;;;;;23.48;14.02;;;19.60;93.30;;;;;;10478300;28;20054;-84
2022/06/18 20:10:49;;;;;;;28.50;16.30;;;19.50;93.70;;;;;;10474508;28;20047;-83
2022/06/18 20:15:50;;;;;;;20.58;11.45;;;19.40;94.50;;;;;;10472153;28;20025;-84
2022/06/18 20:20:51;;;;;;;13.10;8.15;;;19.30;95.00;;;;;;10463906;28;20400;-83
2022/06/18 20:25:52;;;;;;;9.85;6.85;;;19.20;95.80;;;;;;10464346;28;20021;-83
2022/06/18 20:30:53;;;;;;;8.65;6.60;;;19.10;97.10;;;;;;10453236;28;20025;-87
2022/06/18 20:35:54;;;;;;;9.65;7.07;;;19.00;98.10;;;;;;10449412;28;20308;-83
2022/06/18 20:40:58;;;;;;;10.18;6.65;;;18.90;99.90;;;;;;10448042;28;20468;-84
2022/06/18 20:46:00;;;;;;;9.45;6.18;;;18.70;99.90;;;;;;10456681;28;20033;-85
2022/06/18 20:51:01;;;;;;;9.50;6.30;;;18.60;99.90;;;;;;10451451;28;20036;-84
2022/06/18 21:01:23;;;;;;;12.50;7.43;;;18.50;99.90;;;;;;10472263;28;20036;-86
2022/06/18 21:06:24;;;;;;;12.77;8.50;;;18.40;99.90;;;;;;10468125;28;20033;-87
2022/06/18 21:11:26;;;;;;;11.80;8.90;;;18.40;99.90;;;;;;10487833;28;20050;-83
2022/06/18 21:16:27;;;;;;;12.57;8.57;;;18.30;99.90;;;;;;10517020;28;20482;-84
2022/06/18 21:21:28;;;;;;;10.25;6.97;;;18.40;99.90;;;;;;10540325;28;20035;-85
2022/06/18 21:26:28;;;;;;;12.68;8.82;;;18.30;99.90;;;;;;10522578;28;20111;-83
2022/06/18 21:37:00;;;;;;;10.48;7.05;;;18.30;99.90;;;;;;10518312;28;20532;-85
2022/06/18 21:42:05;;;;;;;10.57;6.60;;;18.30;99.90;;;;;;10499137;28;20516;-84
2022/06/18 21:47:08;;;;;;;9.75;7.07;;;18.20;99.90;;;;;;10509786;28;20120;-84
2022/06/18 21:52:10;;;;;;;11.13;7.53;;;18.10;99.90;;;;;;10497914;28;20030;-83
2022/06/18 21:57:29;;;;;;;9.52;6.68;;;18.00;99.90;;;;;;10515971;28;20039;-83
2022/06/18 22:02:30;;;;;;;12.57;6.88;;;17.90;99.90;;;;;;10507135;28;20090;-84
2022/06/18 22:07:30;;;;;;;10.25;7.53;;;17.80;99.90;;;;;;10514942;28;20028;-84
2022/06/18 22:17:51;;;;;;;13.63;8.35;;;17.70;99.90;;;;;;10460094;28;20111;-82
2022/06/18 22:22:51;;;;;;;11.40;7.57;;;17.70;99.90;;;;;;10454163;28;20033;-83
2022/06/18 22:27:52;;;;;;;12.93;9.00;;;17.60;99.90;;;;;;10474934;28;20040;-83
2022/06/18 22:32:53;;;;;;;10.85;7.80;;;17.50;99.90;;;;;;10461390;28;20312;-82
2022/06/18 22:37:54;;;;;;;12.25;8.38;;;17.40;99.90;;;;;;10482489;28;20029;-83
2022/06/18 22:42:55;;;;;;;12.93;9.27;;;17.40;99.90;;;;;;10469422;28;20032;-85
2022/06/18 22:47:57;;;;;;;13.05;8.98;;;17.40;99.90;;;;;;10468032;28;20868;-84
2022/06/18 22:58:25;;;;;;;13.90;9.77;;;17.20;99.90;;;;;;10475278;28;20028;-85
2022/06/18 23:03:26;;;;;;;16.25;9.05;;;17.20;99.90;;;;;;10481828;28;20032;-84
2022/06/18 23:08:30;;;;;;;12.68;9.25;;;17.10;99.90;;;;;;10477709;28;20036;-87
2022/06/18 23:13:30;;;;;;;14.45;9.55;;;17.10;99.90;;;;;;10518923;28;20024;-83
2022/06/18 23:18:32;;;;;;;12.90;8.70;;;17.00;99.90;;;;;;10506870;28;20040;-84
2022/06/18 23:23:32;;;;;;;12.90;9.02;;;17.00;99.90;;;;;;10523578;28;20646;-84
2022/06/18 23:28:33;;;;;;;17.13;9.82;;;17.00;99.90;;;;;;10519425;28;20028;-85
2022/06/18 23:33:36;;;;;;;18.05;10.38;;;17.00;99.90;;;;;;10526519;28;20032;-83
2022/06/18 23:38:37;;;;;;;17.10;10.38;;;17.00;99.90;;;;;;10521340;28;20027;-85
2022/06/18 23:43:38;;;;;;;15.00;10.85;;;16.90;99.90;;;;;;10526590;28;20055;-86
2022/06/18 23:48:39;;;;;;;17.02;10.57;;;16.80;99.90;;;;;;10518343;28;20108;-83
2022/06/18 23:53:39;;;;;;;15.82;10.10;;;16.80;99.90;;;;;;10521077;28;20020;-83
2022/06/18 23:58:40;;;;;;;17.38;10.65;;;16.80;99.90;;;;;;10521917;28;20343;-86
